createdAt,value
2018-07-14T00:00:24.738Z,18.13
2018-07-14T00:02:54.279Z,18.20
2018-07-14T00:05:24.277Z,23.00
2018-07-14T00:07:53.890Z,21.83
2018-07-14T00:10:23.528Z,24.63
2018-07-14T00:12:53.185Z,24.33
2018-07-14T00:15:23.638Z,29.47
2018-07-14T00:17:53.046Z,24.20
2018-07-14T00:20:22.680Z,23.50
2018-07-14T00:22:52.227Z,20.13
2018-07-14T00:25:28.595Z,19.30
2018-07-14T00:27:58.852Z,18.47
2018-07-14T00:30:28.608Z,19.53
2018-07-14T00:32:58.056Z,17.27
2018-07-14T00:35:27.924Z,16.03
2018-07-14T00:37:58.019Z,15.27
2018-07-14T00:40:27.795Z,13.93
2018-07-14T00:42:58.004Z,13.60
2018-07-14T00:45:27.455Z,13.60
2018-07-14T00:47:56.921Z,13.70
2018-07-14T00:50:26.469Z,15.10
2018-07-14T00:52:55.705Z,14.80
2018-07-14T00:55:26.078Z,15.60
2018-07-14T00:57:55.744Z,16.50
2018-07-14T01:00:25.102Z,16.20
2018-07-14T01:02:54.307Z,19.37
2018-07-14T01:05:24.842Z,18.33
2018-07-14T01:07:54.346Z,17.75
2018-07-14T01:10:23.788Z,19.10
2018-07-14T01:12:53.062Z,18.00
2018-07-14T01:15:22.416Z,16.17
2018-07-14T01:17:51.704Z,17.87
2018-07-14T01:20:21.212Z,15.83
2018-07-14T01:22:50.664Z,15.70
2018-07-14T01:25:20.532Z,14.50
2018-07-14T01:27:50.126Z,15.83
2018-07-14T01:30:19.549Z,15.17
2018-07-14T01:32:50.071Z,15.35
2018-07-14T01:35:19.296Z,14.30
2018-07-14T01:37:49.664Z,13.93
2018-07-14T01:40:19.941Z,15.20
2018-07-14T01:42:49.531Z,13.83
2018-07-14T01:45:20.047Z,14.37
2018-07-14T01:47:49.475Z,13.60
2018-07-14T01:50:19.272Z,15.30
2018-07-14T01:52:48.850Z,13.70
2018-07-14T01:55:18.830Z,15.40
2018-07-14T01:57:48.709Z,16.00
2018-07-14T02:00:18.811Z,17.13
2018-07-14T02:02:48.305Z,16.50
2018-07-14T02:05:18.720Z,15.87
2018-07-14T02:07:48.094Z,15.60
2018-07-14T02:10:17.374Z,16.67
2018-07-14T02:12:47.090Z,18.03
2018-07-14T02:15:16.590Z,29.17
2018-07-14T02:17:48.656Z,51.70
2018-07-14T02:20:18.340Z,51.57
2018-07-14T02:22:48.462Z,51.07
2018-07-14T02:25:18.024Z,57.10
2018-07-14T02:27:47.820Z,52.80
2018-07-14T02:30:17.281Z,48.80
2018-07-14T02:32:46.751Z,41.50
2018-07-14T02:35:15.892Z,40.37
2018-07-14T02:37:45.338Z,40.37
2018-07-14T02:40:14.876Z,41.70
2018-07-14T02:42:45.586Z,39.93
2018-07-14T02:45:15.361Z,40.27
2018-07-14T02:47:45.710Z,35.83
2018-07-14T02:50:15.214Z,33.63
2018-07-14T02:52:44.806Z,27.67
2018-07-14T02:55:14.466Z,22.77
2018-07-14T02:57:43.583Z,20.23
2018-07-14T03:00:12.761Z,22.83
2018-07-14T03:02:42.866Z,51.63
2018-07-14T03:05:12.005Z,19.43
2018-07-14T03:07:41.549Z,18.30
2018-07-14T03:10:11.036Z,16.30
2018-07-14T03:12:41.212Z,19.93
2018-07-14T03:15:10.786Z,19.30
2018-07-14T03:17:40.913Z,19.50
2018-07-14T03:20:11.014Z,21.53
2018-07-14T03:22:40.721Z,17.87
2018-07-14T03:25:10.116Z,17.25
2018-07-14T03:27:41.053Z,16.03
2018-07-14T03:30:10.636Z,46.53
2018-07-14T03:32:41.275Z,19.17
2018-07-14T03:35:10.889Z,15.65
2018-07-14T03:37:40.388Z,15.13
2018-07-14T03:40:10.325Z,13.77
2018-07-14T03:42:40.371Z,14.37
2018-07-14T03:45:09.972Z,15.53
2018-07-14T03:47:40.818Z,14.57
2018-07-14T03:50:11.143Z,16.90
2018-07-14T03:52:40.769Z,16.17
2018-07-14T03:55:11.969Z,17.07
2018-07-14T03:57:41.539Z,18.00
2018-07-14T04:00:10.554Z,20.83
2018-07-14T04:02:40.057Z,22.70
2018-07-14T04:05:09.311Z,19.17
2018-07-14T04:07:38.935Z,18.90
2018-07-14T04:10:08.937Z,19.80
2018-07-14T04:12:38.641Z,22.23
2018-07-14T04:15:08.942Z,20.43
2018-07-14T04:17:38.279Z,22.67
2018-07-14T04:20:07.811Z,22.57
2018-07-14T04:22:37.201Z,27.77
2018-07-14T04:25:06.722Z,28.40
2018-07-14T04:27:36.188Z,29.50
2018-07-14T04:30:05.539Z,29.93
2018-07-14T04:32:36.025Z,27.40
2018-07-14T04:35:05.724Z,25.55
2018-07-14T04:37:35.808Z,23.80
2018-07-14T04:40:05.306Z,23.10
2018-07-14T04:42:35.230Z,24.65
2018-07-14T04:45:04.649Z,25.55
2018-07-14T04:47:34.939Z,26.63
2018-07-14T04:50:05.244Z,25.30
2018-07-14T04:52:35.476Z,23.53
2018-07-14T04:55:05.596Z,22.20
2018-07-14T04:57:35.020Z,21.70
2018-07-14T05:00:05.075Z,20.83
2018-07-14T05:02:34.628Z,24.30
2018-07-14T05:05:04.521Z,20.60
2018-07-14T05:07:34.125Z,20.30
2018-07-14T05:10:04.790Z,20.60
2018-07-14T05:12:36.062Z,19.23
2018-07-14T05:15:06.668Z,19.47
2018-07-14T05:17:36.172Z,18.53
2018-07-14T05:20:06.481Z,19.40
2018-07-14T05:22:36.448Z,19.20
2018-07-14T05:25:06.007Z,19.13
2018-07-14T05:27:38.783Z,19.07
2018-07-14T05:30:11.216Z,18.40
2018-07-14T05:32:40.976Z,18.10
2018-07-14T05:35:11.301Z,18.70
2018-07-14T05:37:42.551Z,16.80
2018-07-14T05:40:13.273Z,23.10
2018-07-14T05:42:43.339Z,17.00
2018-07-14T05:45:13.169Z,15.63
2018-07-14T05:47:42.605Z,24.20
2018-07-14T05:50:12.729Z,21.40
2018-07-14T05:52:42.207Z,16.63
2018-07-14T05:55:12.080Z,15.97
2018-07-14T05:57:41.504Z,14.90
2018-07-14T06:00:13.054Z,15.23
2018-07-14T06:02:42.812Z,14.30
2018-07-14T06:05:12.264Z,14.03
2018-07-14T06:07:42.819Z,15.50
2018-07-14T06:10:11.884Z,13.13
2018-07-14T06:12:41.295Z,14.07
2018-07-14T06:15:10.663Z,16.53
2018-07-14T06:17:41.376Z,14.47
2018-07-14T06:20:11.850Z,13.43
2018-07-14T06:22:42.346Z,14.87
2018-07-14T06:25:12.498Z,17.03
2018-07-14T06:27:44.233Z,15.30
2018-07-14T06:30:15.938Z,16.77
2018-07-14T06:32:45.785Z,18.30
2018-07-14T06:35:15.780Z,17.30
2018-07-14T06:37:45.994Z,16.40
2018-07-14T06:40:15.722Z,16.60
2018-07-14T06:42:45.935Z,19.80
2018-07-14T06:45:15.805Z,20.47
2018-07-14T06:47:46.385Z,17.95
2018-07-14T06:50:15.770Z,17.43
2018-07-14T06:52:46.666Z,16.27
2018-07-14T06:55:17.205Z,16.93
2018-07-14T06:57:46.613Z,18.23
2018-07-14T07:00:16.055Z,18.07
2018-07-14T07:02:45.937Z,18.17
2018-07-14T07:05:15.517Z,18.20
2018-07-14T07:07:46.010Z,18.43
2018-07-14T07:10:17.124Z,16.23
2018-07-14T07:12:46.233Z,17.20
2018-07-14T07:15:15.452Z,21.80
2018-07-14T07:17:46.153Z,16.87
2018-07-14T07:20:15.783Z,18.00
2018-07-14T07:22:45.305Z,16.67
2018-07-14T07:25:15.512Z,15.60
2018-07-14T07:27:45.886Z,18.93
2018-07-14T07:30:15.288Z,14.65
2018-07-14T07:32:44.937Z,15.17
2018-07-14T07:35:15.314Z,14.50
2018-07-14T07:37:45.664Z,18.13
2018-07-14T07:40:15.195Z,15.93
2018-07-14T07:42:44.642Z,16.80
2018-07-14T07:45:14.069Z,14.50
2018-07-14T07:47:43.773Z,15.23
2018-07-14T07:50:13.202Z,15.23
2018-07-14T07:52:43.426Z,16.40
2018-07-14T07:55:13.116Z,14.17
2018-07-14T07:57:42.452Z,18.27
2018-07-14T08:00:11.562Z,14.57
2018-07-14T08:02:41.072Z,15.40
2018-07-14T08:05:10.078Z,15.77
2018-07-14T08:07:39.458Z,15.07
2018-07-14T08:10:08.893Z,16.07
2018-07-14T08:12:38.545Z,16.67
2018-07-14T08:15:09.163Z,16.13
2018-07-14T08:17:39.161Z,17.20
2018-07-14T08:20:28.265Z,17.77
2018-07-14T08:26:24.784Z,18.13
2018-07-14T08:29:13.005Z,18.57
2018-07-14T08:32:03.315Z,17.45
2018-07-14T08:34:35.710Z,19.27
2018-07-14T08:37:05.765Z,15.77
2018-07-14T08:39:35.415Z,15.93
2018-07-14T08:42:05.377Z,17.90
2018-07-14T08:44:34.963Z,16.60
2018-07-14T08:47:05.201Z,15.13
2018-07-14T08:49:34.805Z,16.43
2018-07-14T08:52:05.301Z,16.87
2018-07-14T08:54:35.005Z,15.83
2018-07-14T08:57:05.337Z,16.20
2018-07-14T08:59:35.938Z,15.03
2018-07-14T09:02:06.193Z,15.33
2018-07-14T09:04:35.727Z,15.33
2018-07-14T09:07:06.084Z,12.60
2018-07-14T09:09:36.503Z,13.03
2018-07-14T09:12:06.744Z,14.57
2018-07-14T09:14:36.543Z,13.50
2018-07-14T09:17:06.636Z,14.07
2018-07-14T09:19:36.246Z,13.57
2018-07-14T09:22:05.980Z,13.57
2018-07-14T09:24:35.764Z,13.37
2018-07-14T09:27:05.499Z,12.23
2018-07-14T09:29:35.104Z,10.67
2018-07-14T09:32:04.847Z,12.97
2018-07-14T09:34:34.742Z,13.27
2018-07-14T09:37:04.193Z,15.23
2018-07-14T09:39:34.496Z,15.43
2018-07-14T09:42:04.095Z,13.63
2018-07-14T09:44:34.785Z,12.53
2018-07-14T09:47:04.671Z,14.03
2018-07-14T09:49:35.281Z,14.03
2018-07-14T09:52:05.536Z,12.07
2018-07-14T09:54:35.135Z,13.60
2018-07-14T09:57:04.978Z,11.33
2018-07-14T09:59:34.752Z,10.40
2018-07-14T10:02:04.614Z,11.90
2018-07-14T10:04:34.240Z,11.00
2018-07-14T10:07:04.043Z,9.30
2018-07-14T10:09:34.158Z,11.23
2018-07-14T10:12:04.304Z,11.33
2018-07-14T10:14:33.796Z,9.67
2018-07-14T10:17:03.224Z,8.73
2018-07-14T10:19:33.602Z,13.37
2018-07-14T10:22:03.160Z,12.63
2018-07-14T10:24:32.799Z,10.60
2018-07-14T10:27:02.492Z,8.80
2018-07-14T10:29:31.853Z,10.97
2018-07-14T10:32:01.941Z,8.33
2018-07-14T10:34:31.416Z,11.57
2018-07-14T10:37:01.005Z,9.30
2018-07-14T10:39:30.435Z,11.73
2018-07-14T10:41:59.972Z,9.70
2018-07-14T10:44:29.393Z,9.93
2018-07-14T10:46:59.333Z,7.80
2018-07-14T10:49:28.604Z,8.78
2018-07-14T10:51:58.110Z,8.83
2018-07-14T10:54:27.605Z,8.43
2018-07-14T10:56:57.199Z,7.43
2018-07-14T10:59:26.699Z,8.73
2018-07-14T11:01:56.332Z,6.92
2018-07-14T11:04:26.676Z,7.85
2018-07-14T11:06:56.128Z,7.70
2018-07-14T11:09:25.527Z,7.70
2018-07-14T11:11:55.035Z,8.80
2018-07-14T11:14:24.592Z,11.80
2018-07-14T11:16:54.286Z,10.43
2018-07-14T11:19:23.804Z,11.77
2018-07-14T11:21:53.802Z,10.87
2018-07-14T11:24:23.774Z,11.17
2018-07-14T11:26:53.214Z,9.10
2018-07-14T11:29:22.820Z,9.67
2018-07-14T11:31:52.429Z,9.07
2018-07-14T11:34:22.290Z,7.10
2018-07-14T11:36:51.834Z,6.60
2018-07-14T11:39:21.429Z,8.17
2018-07-14T11:41:51.672Z,7.62
2018-07-14T11:44:21.144Z,12.13
2018-07-14T11:46:50.882Z,9.80
2018-07-14T11:49:21.061Z,7.90
2018-07-14T11:51:50.525Z,10.73
2018-07-14T11:54:20.049Z,7.10
2018-07-14T11:56:49.768Z,8.43
2018-07-14T11:59:19.256Z,10.05
2018-07-14T12:01:48.996Z,7.50
2018-07-14T12:04:18.696Z,7.35
2018-07-14T12:06:49.399Z,4.70
2018-07-14T12:09:19.167Z,7.37
2018-07-14T12:11:48.951Z,4.10
2018-07-14T12:14:18.129Z,4.28
2018-07-14T12:16:47.538Z,4.00
2018-07-14T12:19:17.860Z,3.65
2018-07-14T12:21:48.288Z,3.85
2018-07-14T12:24:17.717Z,3.35
2018-07-14T12:26:47.166Z,2.72
2018-07-14T12:29:16.766Z,3.25
2018-07-14T12:31:47.664Z,2.87
2018-07-14T12:34:17.222Z,1.87
2018-07-14T12:36:46.793Z,1.92
2018-07-14T12:39:16.085Z,1.98
2018-07-14T12:41:45.944Z,2.33
2018-07-14T12:44:15.449Z,2.12
2018-07-14T12:46:45.722Z,1.35
2018-07-14T12:49:15.042Z,2.60
2018-07-14T12:51:44.729Z,1.85
2018-07-14T12:54:14.751Z,2.12
2018-07-14T12:56:44.219Z,1.37
2018-07-14T12:59:13.879Z,1.70
2018-07-14T13:01:43.910Z,3.92
2018-07-14T13:04:13.328Z,1.77
2018-07-14T13:06:42.704Z,2.55
2018-07-14T13:09:12.108Z,1.60
2018-07-14T13:11:41.751Z,1.85
2018-07-14T13:14:11.479Z,2.47
2018-07-14T13:16:40.929Z,3.37
2018-07-14T13:19:10.219Z,3.10
2018-07-14T13:21:39.903Z,2.20
2018-07-14T13:24:09.573Z,1.65
2018-07-14T13:26:39.443Z,2.95
2018-07-14T13:29:08.831Z,3.25
2018-07-14T13:31:38.467Z,1.95
2018-07-14T13:34:07.916Z,3.17
2018-07-14T13:36:38.567Z,2.17
2018-07-14T13:39:08.192Z,2.40
2018-07-14T13:41:37.709Z,3.05
2018-07-14T13:44:06.992Z,6.45
2018-07-14T13:46:36.357Z,2.37
2018-07-14T13:49:06.074Z,2.75
2018-07-14T13:51:35.454Z,2.50
2018-07-14T13:54:04.987Z,3.70
2018-07-14T13:56:34.717Z,2.27
2018-07-14T13:59:04.173Z,1.62
2018-07-14T14:01:33.761Z,1.70
2018-07-14T14:04:03.004Z,2.20
2018-07-14T14:06:32.514Z,3.12
2018-07-14T14:09:02.129Z,2.35
2018-07-14T14:11:31.836Z,2.07
2018-07-14T14:14:01.447Z,10.55
2018-07-14T14:16:32.030Z,3.50
2018-07-14T14:19:01.840Z,2.87
2018-07-14T14:21:32.123Z,3.83
2018-07-14T14:24:01.647Z,2.35
2018-07-14T14:26:31.105Z,1.50
2018-07-14T14:29:00.511Z,2.25
2018-07-14T14:31:29.943Z,1.90
2018-07-14T14:33:59.501Z,3.30
2018-07-14T14:36:29.167Z,1.98
2018-07-14T14:38:58.806Z,1.87
2018-07-14T14:41:29.384Z,1.57
2018-07-14T14:43:59.526Z,1.50
2018-07-14T14:46:29.040Z,10.03
2018-07-14T14:48:58.547Z,1.47
2018-07-14T14:51:28.705Z,2.83
2018-07-14T14:53:57.893Z,1.82
2018-07-14T14:56:27.364Z,1.42
2018-07-14T14:58:56.984Z,1.52
2018-07-14T15:01:26.390Z,1.45
2018-07-14T15:03:56.004Z,1.50
2018-07-14T15:06:25.470Z,1.72
2018-07-14T15:08:55.278Z,1.70
2018-07-14T15:11:24.903Z,1.98
2018-07-14T15:13:53.927Z,1.45
2018-07-14T15:16:23.389Z,1.75
2018-07-14T15:18:52.868Z,2.98
2018-07-14T15:21:23.396Z,1.92
2018-07-14T15:23:52.819Z,4.25
2018-07-14T15:26:22.642Z,1.87
2018-07-14T15:28:52.210Z,1.75
2018-07-14T15:31:22.545Z,5.92
2018-07-14T15:33:52.282Z,1.77
2018-07-14T15:36:21.765Z,1.92
2018-07-14T15:38:51.508Z,3.60
2018-07-14T15:41:21.123Z,3.20
2018-07-14T15:43:51.181Z,2.42
2018-07-14T15:46:20.609Z,3.72
2018-07-14T15:48:49.974Z,2.62
2018-07-14T15:51:19.537Z,4.70
2018-07-14T15:53:49.251Z,3.47
2018-07-14T15:56:20.876Z,2.95
2018-07-14T15:58:50.535Z,3.35
2018-07-14T16:01:20.828Z,4.12
2018-07-14T16:03:50.796Z,6.80
2018-07-14T16:06:21.769Z,5.20
2018-07-14T16:08:51.417Z,4.25
2018-07-14T16:11:20.746Z,3.02
2018-07-14T16:13:50.411Z,2.80
2018-07-14T16:16:19.973Z,3.52
2018-07-14T16:18:48.970Z,4.00
2018-07-14T16:21:18.503Z,3.58
2018-07-14T16:23:48.105Z,4.12
2018-07-14T16:26:17.720Z,3.62
2018-07-14T16:28:48.082Z,3.85
2018-07-14T16:31:18.292Z,4.62
2018-07-14T16:33:48.128Z,5.53
2018-07-14T16:36:17.785Z,5.70
2018-07-14T16:38:47.450Z,7.20
2018-07-14T16:41:17.021Z,4.28
2018-07-14T16:43:46.749Z,4.30
2018-07-14T16:46:16.187Z,4.42
2018-07-14T16:48:46.463Z,3.50
2018-07-14T16:51:16.897Z,4.00
2018-07-14T16:53:46.292Z,3.92
2018-07-14T16:56:16.383Z,5.50
2018-07-14T16:58:46.734Z,4.75
2018-07-14T17:01:15.797Z,6.97
2018-07-14T17:03:45.285Z,5.12
2018-07-14T17:06:14.963Z,5.50
2018-07-14T17:08:44.691Z,4.00
2018-07-14T17:11:14.885Z,4.07
2018-07-14T17:13:56.606Z,5.13
2018-07-14T17:16:41.582Z,4.60
2018-07-14T17:19:25.046Z,6.23
2018-07-14T17:22:08.661Z,5.03
2018-07-14T17:24:51.391Z,4.20
2018-07-14T17:27:35.520Z,5.43
2018-07-14T17:30:19.629Z,4.70
2018-07-14T17:33:00.733Z,5.37
2018-07-14T17:35:36.636Z,6.87
2018-07-14T17:38:07.021Z,6.43
2018-07-14T17:40:36.884Z,5.93
2018-07-14T17:43:06.593Z,6.97
2018-07-14T17:45:36.055Z,8.80
2018-07-14T17:48:05.941Z,6.13
2018-07-14T17:50:35.776Z,6.80
2018-07-14T17:53:05.146Z,6.30
2018-07-14T17:55:34.572Z,5.70
2018-07-14T17:58:04.120Z,5.63
2018-07-14T18:00:34.919Z,8.53
2018-07-14T18:03:05.867Z,6.50
2018-07-14T18:05:35.557Z,5.63
2018-07-14T18:08:04.846Z,7.73
2018-07-14T18:10:34.620Z,5.43
2018-07-14T18:13:04.172Z,6.00
2018-07-14T18:15:35.065Z,8.43
2018-07-14T18:18:04.822Z,10.63
2018-07-14T18:20:34.676Z,8.20
2018-07-14T18:23:04.784Z,9.67
2018-07-14T18:25:34.429Z,7.63
2018-07-14T18:28:04.189Z,7.73
2018-07-14T18:30:33.553Z,6.23
2018-07-14T18:33:03.028Z,7.17
2018-07-14T18:35:32.643Z,7.03
2018-07-14T18:38:02.799Z,7.57
2018-07-14T18:40:32.310Z,10.40
2018-07-14T18:43:02.080Z,6.53
2018-07-14T18:45:31.716Z,6.30
2018-07-14T18:48:01.941Z,10.30
2018-07-14T18:50:31.936Z,11.23
2018-07-14T18:53:09.175Z,10.57
2018-07-14T18:55:39.675Z,8.40
2018-07-14T18:58:09.671Z,7.00
2018-07-14T19:00:43.901Z,7.73
2018-07-14T19:03:22.475Z,6.33
2018-07-14T19:06:16.925Z,5.97
2018-07-14T19:08:54.612Z,6.13
2018-07-14T19:11:26.236Z,7.30
2018-07-14T19:13:56.712Z,7.13
2018-07-14T19:16:26.119Z,6.40
2018-07-14T19:18:55.573Z,8.03
2018-07-14T19:21:25.146Z,8.07
2018-07-14T19:23:54.429Z,7.37
2018-07-14T19:26:23.772Z,8.20
2018-07-14T19:28:53.235Z,6.70
2018-07-14T19:31:23.855Z,5.93
2018-07-14T19:33:53.170Z,7.63
2018-07-14T19:36:23.001Z,8.33
2018-07-14T19:38:57.724Z,11.50
2018-07-14T19:41:39.279Z,14.20
2018-07-14T19:44:09.876Z,8.40
2018-07-14T19:46:40.204Z,8.53
2018-07-14T19:49:09.756Z,7.97
2018-07-14T19:51:39.390Z,10.43
2018-07-14T19:54:09.161Z,10.83
2018-07-14T19:56:39.255Z,9.77
2018-07-14T19:59:08.711Z,9.10
2018-07-14T20:01:38.066Z,9.00
2018-07-14T20:04:08.444Z,10.97
2018-07-14T20:06:38.271Z,8.03
2018-07-14T20:09:08.708Z,9.37
2018-07-14T20:11:38.494Z,8.87
2018-07-14T20:14:08.078Z,8.43
2018-07-14T20:16:37.615Z,8.07
2018-07-14T20:19:07.340Z,8.23
2018-07-14T20:21:37.223Z,10.50
2018-07-14T20:24:06.953Z,8.87
2018-07-14T20:26:36.493Z,10.30
2018-07-14T20:29:05.869Z,10.87
2018-07-14T20:31:37.931Z,9.70
2018-07-14T20:34:07.433Z,10.20
2018-07-14T20:36:36.882Z,10.97
2018-07-14T20:39:07.153Z,11.53
2018-07-14T20:41:36.679Z,10.97
2018-07-14T20:44:06.529Z,12.20
2018-07-14T20:46:36.265Z,15.97
2018-07-14T20:49:06.052Z,9.57
2018-07-14T20:51:35.165Z,11.17
2018-07-14T20:54:04.690Z,10.73
2018-07-14T20:56:34.988Z,10.73
2018-07-14T20:59:04.681Z,11.47
2018-07-14T21:01:34.462Z,12.10
2018-07-14T21:04:05.136Z,11.35
2018-07-14T21:06:34.356Z,11.40
2018-07-14T21:09:03.530Z,11.20
2018-07-14T21:11:33.864Z,12.30
2018-07-14T21:14:03.310Z,11.70
2018-07-14T21:16:33.113Z,11.53
2018-07-14T21:19:02.440Z,13.07
2018-07-14T21:21:31.870Z,11.70
2018-07-14T21:24:01.635Z,12.05
2018-07-14T21:26:31.430Z,13.47
2018-07-14T21:29:00.909Z,11.93
2018-07-14T21:31:30.420Z,17.83
2018-07-14T21:34:01.050Z,11.90
2018-07-14T21:36:30.716Z,13.20
2018-07-14T21:39:00.363Z,12.30
2018-07-14T21:41:30.067Z,14.77
2018-07-14T21:43:59.931Z,15.10
2018-07-14T21:46:29.545Z,12.43
2018-07-14T21:48:59.013Z,14.43
2018-07-14T21:51:29.179Z,13.30
2018-07-14T21:53:59.529Z,13.97
2018-07-14T21:56:28.938Z,13.30
2018-07-14T21:58:58.617Z,12.40
2018-07-14T22:01:29.116Z,13.03
2018-07-14T22:04:00.126Z,15.33
2018-07-14T22:06:30.824Z,14.97
2018-07-14T22:09:00.227Z,13.30
2018-07-14T22:11:30.737Z,12.07
2018-07-14T22:14:00.240Z,12.53
2018-07-14T22:16:29.829Z,13.50
2018-07-14T22:18:59.472Z,12.43
2018-07-14T22:21:29.265Z,11.90
2018-07-14T22:23:59.079Z,11.13
2018-07-14T22:26:29.031Z,13.17
2018-07-14T22:28:58.657Z,11.90
2018-07-14T22:31:28.469Z,12.17
2018-07-14T22:33:57.669Z,12.43
2018-07-14T22:36:26.687Z,15.77
2018-07-14T22:38:55.929Z,14.73
2018-07-14T22:41:25.741Z,18.85
2018-07-14T22:43:55.034Z,14.10
2018-07-14T22:46:24.527Z,14.27
2018-07-14T22:48:54.840Z,16.53
2018-07-14T22:51:24.582Z,14.33
2018-07-14T22:53:54.877Z,14.43
2018-07-14T22:56:24.685Z,14.93
2018-07-14T22:58:54.212Z,14.30
2018-07-14T23:01:23.763Z,13.85
2018-07-14T23:03:53.188Z,13.17
2018-07-14T23:06:22.641Z,13.57
2018-07-14T23:08:52.243Z,13.57
2018-07-14T23:11:22.123Z,16.73
2018-07-14T23:13:51.728Z,15.43
2018-07-14T23:16:21.786Z,16.00
2018-07-14T23:18:51.470Z,16.15
2018-07-14T23:21:21.045Z,17.37
2018-07-14T23:23:50.614Z,19.33
2018-07-14T23:26:20.080Z,18.10
2018-07-14T23:28:50.060Z,19.37
2018-07-14T23:31:19.675Z,21.85
2018-07-14T23:33:50.409Z,21.13
2018-07-14T23:36:20.527Z,20.15
2018-07-14T23:38:50.598Z,20.70
2018-07-14T23:41:20.314Z,19.10
2018-07-14T23:43:49.769Z,19.93
2018-07-14T23:46:19.844Z,22.07
2018-07-14T23:48:50.197Z,20.27
2018-07-14T23:51:19.772Z,18.47
2018-07-14T23:53:49.207Z,19.37
2018-07-14T23:56:19.249Z,17.50
2018-07-14T23:58:49.207Z,17.57
